sensor_id;sensor_type;location;lat;lon;timestamp;pressure;altitude;pressure_sealevel;temperature;humidity
51081;BME280;37130;55.670;37.596;2022-10-31T00:00:47;97821.66;;;0.57;71.38
51081;BME280;37130;55.670;37.596;2022-10-31T00:03:15;97819.84;;;0.59;71.15
51081;BME280;37130;55.670;37.596;2022-10-31T00:05:45;97812.84;;;0.61;70.94
51081;BME280;37130;55.670;37.596;2022-10-31T00:08:13;97819.63;;;0.65;71.05
51081;BME280;37130;55.670;37.596;2022-10-31T00:10:41;97768.53;;;0.37;70.87
51081;BME280;37130;55.670;37.596;2022-10-31T00:13:09;97803.97;;;0.65;70.78
51081;BME280;37130;55.670;37.596;2022-10-31T00:15:36;97798.72;;;0.67;70.76
51081;BME280;37130;55.670;37.596;2022-10-31T00:18:04;97804.63;;;0.72;70.91
51081;BME280;37130;55.670;37.596;2022-10-31T00:20:31;97814.09;;;0.74;71.16
51081;BME280;37130;55.670;37.596;2022-10-31T00:22:58;97801.06;;;0.74;70.60
51081;BME280;37130;55.670;37.596;2022-10-31T00:25:27;97793.25;;;0.74;70.82
51081;BME280;37130;55.670;37.596;2022-10-31T00:27:54;97789.59;;;0.78;70.94
51081;BME280;37130;55.670;37.596;2022-10-31T00:30:21;97787.78;;;0.80;71.11
51081;BME280;37130;55.670;37.596;2022-10-31T00:32:48;97789.53;;;0.80;70.43
51081;BME280;37130;55.670;37.596;2022-10-31T00:35:16;97784.38;;;0.78;70.70
51081;BME280;37130;55.670;37.596;2022-10-31T00:37:44;97790.47;;;0.79;70.76
51081;BME280;37130;55.670;37.596;2022-10-31T00:40:11;97780.94;;;0.78;70.35
51081;BME280;37130;55.670;37.596;2022-10-31T00:42:41;97777.59;;;0.74;70.62
51081;BME280;37130;55.670;37.596;2022-10-31T00:45:09;97783.78;;;0.72;70.60
51081;BME280;37130;55.670;37.596;2022-10-31T00:47:36;97776.09;;;0.69;70.79
51081;BME280;37130;55.670;37.596;2022-10-31T00:50:04;97780.34;;;0.71;70.63
51081;BME280;37130;55.670;37.596;2022-10-31T00:52:31;97764.63;;;0.73;70.71
51081;BME280;37130;55.670;37.596;2022-10-31T00:54:58;97781.09;;;0.73;70.41
51081;BME280;37130;55.670;37.596;2022-10-31T00:57:26;97774.16;;;0.74;70.40
51081;BME280;37130;55.670;37.596;2022-10-31T00:59:53;97782.81;;;0.74;70.12
51081;BME280;37130;55.670;37.596;2022-10-31T01:02:20;97775.84;;;0.75;70.05
51081;BME280;37130;55.670;37.596;2022-10-31T01:04:48;97789.72;;;0.75;69.69
51081;BME280;37130;55.670;37.596;2022-10-31T01:07:15;97794.09;;;0.75;69.59
51081;BME280;37130;55.670;37.596;2022-10-31T01:09:43;97779.28;;;0.75;69.80
51081;BME280;37130;55.670;37.596;2022-10-31T01:12:10;97771.47;;;0.75;69.55
51081;BME280;37130;55.670;37.596;2022-10-31T01:14:42;97775.84;;;0.75;69.56
51081;BME280;37130;55.670;37.596;2022-10-31T01:17:09;97772.31;;;0.76;69.54
51081;BME280;37130;55.670;37.596;2022-10-31T01:19:36;97768.69;;;0.80;69.79
51081;BME280;37130;55.670;37.596;2022-10-31T01:22:03;97772.91;;;0.84;69.72
51081;BME280;37130;55.670;37.596;2022-10-31T01:24:30;97772.91;;;0.84;69.51
51081;BME280;37130;55.670;37.596;2022-10-31T01:26:57;97770.22;;;0.85;69.60
51081;BME280;37130;55.670;37.596;2022-10-31T01:29:24;97769.38;;;0.85;69.61
51081;BME280;37130;55.670;37.596;2022-10-31T01:31:53;97771.19;;;0.83;69.46
51081;BME280;37130;55.670;37.596;2022-10-31T01:34:20;97773.75;;;0.84;69.86
51081;BME280;37130;55.670;37.596;2022-10-31T01:36:47;97772.91;;;0.84;69.55
51081;BME280;37130;55.670;37.596;2022-10-31T01:39:18;97780.72;;;0.84;69.29
51081;BME280;37130;55.670;37.596;2022-10-31T01:41:47;97787.63;;;0.85;69.68
51081;BME280;37130;55.670;37.596;2022-10-31T01:51:50;97790.34;;;0.82;69.68
51081;BME280;37130;55.670;37.596;2022-10-31T01:54:18;97785.25;;;0.79;69.74
51081;BME280;37130;55.670;37.596;2022-10-31T01:56:48;97791.34;;;0.78;70.18
51081;BME280;37130;55.670;37.596;2022-10-31T01:59:17;97783.66;;;0.75;70.22
51081;BME280;37130;55.670;37.596;2022-10-31T02:01:46;97792.41;;;0.74;70.04
51081;BME280;37130;55.670;37.596;2022-10-31T02:04:14;97801.94;;;0.73;70.44
51081;BME280;37130;55.670;37.596;2022-10-31T02:06:52;97797.66;;;0.72;70.42
51081;BME280;37130;55.670;37.596;2022-10-31T02:09:20;97798.44;;;0.74;70.54
51081;BME280;37130;55.670;37.596;2022-10-31T02:11:51;97799.25;;;0.76;70.80
51081;BME280;37130;55.670;37.596;2022-10-31T02:14:20;97800.88;;;0.79;70.80
51081;BME280;37130;55.670;37.596;2022-10-31T02:16:50;97804.25;;;0.81;70.97
51081;BME280;37130;55.670;37.596;2022-10-31T02:30:06;97788.75;;;0.54;71.54
51081;BME280;37130;55.670;37.596;2022-10-31T02:32:38;97790.00;;;0.44;71.76
51081;BME280;37130;55.670;37.596;2022-10-31T02:35:31;97792.03;;;0.36;72.53
51081;BME280;37130;55.670;37.596;2022-10-31T02:40:42;97793.78;;;0.10;72.40
51081;BME280;37130;55.670;37.596;2022-10-31T02:43:40;97796.75;;;-0.01;73.16
51081;BME280;37130;55.670;37.596;2022-10-31T02:46:32;97799.34;;;-0.01;73.30
51081;BME280;37130;55.670;37.596;2022-10-31T02:49:06;97782.78;;;0.02;73.63
51081;BME280;37130;55.670;37.596;2022-10-31T02:51:35;97794.00;;;0.04;73.76
51081;BME280;37130;55.670;37.596;2022-10-31T02:54:03;97792.19;;;0.06;73.78
51081;BME280;37130;55.670;37.596;2022-10-31T02:56:30;97786.16;;;0.06;74.11
51081;BME280;37130;55.670;37.596;2022-10-31T02:58:58;97794.91;;;0.03;74.25
51081;BME280;37130;55.670;37.596;2022-10-31T03:09:28;97789.47;;;-0.16;74.92
51081;BME280;37130;55.670;37.596;2022-10-31T03:12:21;97797.34;;;-0.17;75.08
51081;BME280;37130;55.670;37.596;2022-10-31T03:14:54;97797.38;;;-0.19;75.24
51081;BME280;37130;55.670;37.596;2022-10-31T03:17:32;97796.53;;;-0.19;75.61
51081;BME280;37130;55.670;37.596;2022-10-31T03:20:03;97797.34;;;-0.17;75.87
51081;BME280;37130;55.670;37.596;2022-10-31T03:22:31;97795.72;;;-0.22;75.31
51081;BME280;37130;55.670;37.596;2022-10-31T03:25:00;97794.06;;;-0.24;75.86
51081;BME280;37130;55.670;37.596;2022-10-31T03:27:30;97794.03;;;-0.23;75.75
51081;BME280;37130;55.670;37.596;2022-10-31T03:30:00;97811.34;;;-0.22;76.13
51081;BME280;37130;55.670;37.596;2022-10-31T03:35:00;97800.09;;;-0.22;75.90
51081;BME280;37130;55.670;37.596;2022-10-31T03:37:29;97799.13;;;-0.19;76.31
51081;BME280;37130;55.670;37.596;2022-10-31T03:39:59;97800.81;;;-0.18;76.29
51081;BME280;37130;55.670;37.596;2022-10-31T03:42:30;97803.44;;;-0.18;76.26
51081;BME280;37130;55.670;37.596;2022-10-31T03:44:59;97818.97;;;-0.15;76.21
51081;BME280;37130;55.670;37.596;2022-10-31T03:47:29;97813.66;;;-0.12;76.30
51081;BME280;37130;55.670;37.596;2022-10-31T03:49:56;97810.25;;;-0.14;76.49
51081;BME280;37130;55.670;37.596;2022-10-31T03:52:25;97801.75;;;-0.19;76.64
51081;BME280;37130;55.670;37.596;2022-10-31T03:54:59;97799.09;;;-0.18;76.88
51081;BME280;37130;55.670;37.596;2022-10-31T03:57:32;97799.88;;;-0.16;76.82
51081;BME280;37130;55.670;37.596;2022-10-31T04:00:05;97804.94;;;-0.11;76.91
51081;BME280;37130;55.670;37.596;2022-10-31T04:03:05;97802.13;;;-0.05;76.79
51081;BME280;37130;55.670;37.596;2022-10-31T04:05:32;97807.22;;;-0.02;76.86
51081;BME280;37130;55.670;37.596;2022-10-31T04:08:02;97809.97;;;-0.07;76.91
51081;BME280;37130;55.670;37.596;2022-10-31T04:10:31;97810.94;;;-0.09;76.97
51081;BME280;37130;55.670;37.596;2022-10-31T04:13:04;97820.34;;;-0.05;77.25
51081;BME280;37130;55.670;37.596;2022-10-31T04:15:38;97807.28;;;-0.04;77.02
51081;BME280;37130;55.670;37.596;2022-10-31T04:18:07;97812.44;;;-0.02;77.18
51081;BME280;37130;55.670;37.596;2022-10-31T04:20:38;97834.06;;;0.00;76.94
51081;BME280;37130;55.670;37.596;2022-10-31T04:23:20;97812.34;;;0.01;76.92
51081;BME280;37130;55.670;37.596;2022-10-31T04:25:49;97829.59;;;0.04;76.96
51081;BME280;37130;55.670;37.596;2022-10-31T04:28:17;97833.03;;;0.04;77.22
51081;BME280;37130;55.670;37.596;2022-10-31T04:30:50;97836.44;;;0.06;77.53
51081;BME280;37130;55.670;37.596;2022-10-31T04:33:17;97832.03;;;0.08;77.12
51081;BME280;37130;55.670;37.596;2022-10-31T04:35:46;97757.22;;;-0.37;76.87
51081;BME280;37130;55.670;37.596;2022-10-31T04:38:13;97837.28;;;0.07;77.58
51081;BME280;37130;55.670;37.596;2022-10-31T04:40:42;97839.84;;;0.08;77.51
51081;BME280;37130;55.670;37.596;2022-10-31T04:43:27;97848.50;;;0.09;77.43
51081;BME280;37130;55.670;37.596;2022-10-31T04:45:54;97841.59;;;0.08;77.58
51081;BME280;37130;55.670;37.596;2022-10-31T04:48:22;97850.16;;;0.11;77.66
51081;BME280;37130;55.670;37.596;2022-10-31T04:50:49;97862.22;;;0.14;77.64
51081;BME280;37130;55.670;37.596;2022-10-31T04:53:16;97868.03;;;0.20;77.58
51081;BME280;37130;55.670;37.596;2022-10-31T04:56:01;97868.25;;;0.14;77.27
51081;BME280;37130;55.670;37.596;2022-10-31T04:58:39;97865.69;;;0.13;77.34
51081;BME280;37130;55.670;37.596;2022-10-31T05:01:08;97867.28;;;0.18;77.27
51081;BME280;37130;55.670;37.596;2022-10-31T05:03:35;97870.53;;;0.24;77.50
51081;BME280;37130;55.670;37.596;2022-10-31T05:06:02;97874.06;;;0.22;77.50
51081;BME280;37130;55.670;37.596;2022-10-31T05:08:30;97879.22;;;0.24;77.53
51081;BME280;37130;55.670;37.596;2022-10-31T05:11:01;97879.16;;;0.26;77.57
51081;BME280;37130;55.670;37.596;2022-10-31T05:13:31;97888.00;;;0.21;77.45
51081;BME280;37130;55.670;37.596;2022-10-31T05:16:13;97908.22;;;0.13;77.59
51081;BME280;37130;55.670;37.596;2022-10-31T05:18:58;97884.69;;;0.16;77.98
51081;BME280;37130;55.670;37.596;2022-10-31T05:21:44;97892.28;;;0.22;77.66
51081;BME280;37130;55.670;37.596;2022-10-31T05:24:11;97901.63;;;0.28;77.54
51081;BME280;37130;55.670;37.596;2022-10-31T05:26:43;97906.81;;;0.30;77.66
51081;BME280;37130;55.670;37.596;2022-10-31T05:29:12;97911.75;;;0.37;78.03
51081;BME280;37130;55.670;37.596;2022-10-31T05:31:39;97919.13;;;0.50;77.52
51081;BME280;37130;55.670;37.596;2022-10-31T05:34:12;97919.78;;;0.56;77.36
51081;BME280;37130;55.670;37.596;2022-10-31T05:36:57;97901.66;;;0.53;77.38
51081;BME280;37130;55.670;37.596;2022-10-31T05:39:25;97923.38;;;0.52;77.56
51081;BME280;37130;55.670;37.596;2022-10-31T05:41:55;97928.81;;;0.46;77.68
51081;BME280;37130;55.670;37.596;2022-10-31T05:44:25;97940.28;;;0.40;77.76
51081;BME280;37130;55.670;37.596;2022-10-31T05:47:22;97937.16;;;0.56;77.85
51081;BME280;37130;55.670;37.596;2022-10-31T05:49:55;97935.16;;;0.64;77.58
51081;BME280;37130;55.670;37.596;2022-10-31T05:52:40;97941.28;;;0.63;77.16
51081;BME280;37130;55.670;37.596;2022-10-31T05:55:20;97954.22;;;0.64;77.83
51081;BME280;37130;55.670;37.596;2022-10-31T05:58:02;97965.50;;;0.65;77.41
51081;BME280;37130;55.670;37.596;2022-10-31T06:00:30;97964.66;;;0.64;77.35
51081;BME280;37130;55.670;37.596;2022-10-31T06:03:06;97968.69;;;0.73;77.62
51081;BME280;37130;55.670;37.596;2022-10-31T06:05:45;97972.75;;;0.82;77.65
51081;BME280;37130;55.670;37.596;2022-10-31T06:08:20;97971.69;;;0.87;77.26
51081;BME280;37130;55.670;37.596;2022-10-31T06:10:48;97983.69;;;0.92;77.47
51081;BME280;37130;55.670;37.596;2022-10-31T06:13:22;97988.63;;;0.99;77.38
51081;BME280;37130;55.670;37.596;2022-10-31T06:15:58;98005.84;;;1.05;77.63
51081;BME280;37130;55.670;37.596;2022-10-31T06:18:32;97999.75;;;1.04;77.64
51081;BME280;37130;55.670;37.596;2022-10-31T06:21:00;98011.13;;;1.02;77.61
51081;BME280;37130;55.670;37.596;2022-10-31T06:23:27;98015.34;;;1.06;77.79
51081;BME280;37130;55.670;37.596;2022-10-31T06:26:14;98015.19;;;1.11;77.67
51081;BME280;37130;55.670;37.596;2022-10-31T06:28:41;98025.63;;;1.11;77.69
51081;BME280;37130;55.670;37.596;2022-10-31T06:31:27;98029.00;;;1.13;77.36
51081;BME280;37130;55.670;37.596;2022-10-31T06:33:55;98032.41;;;1.15;78.06
51081;BME280;37130;55.670;37.596;2022-10-31T06:36:22;98045.41;;;1.16;77.98
51081;BME280;37130;55.670;37.596;2022-10-31T06:38:51;98052.19;;;1.20;77.55
51081;BME280;37130;55.670;37.596;2022-10-31T06:41:21;98060.69;;;1.27;77.53
51081;BME280;37130;55.670;37.596;2022-10-31T06:43:49;98064.66;;;1.37;77.45
51081;BME280;37130;55.670;37.596;2022-10-31T06:46:29;98083.72;;;1.39;77.37
51081;BME280;37130;55.670;37.596;2022-10-31T06:49:28;98066.09;;;1.46;77.73
51081;BME280;37130;55.670;37.596;2022-10-31T06:52:00;98076.97;;;1.57;77.49
51081;BME280;37130;55.670;37.596;2022-10-31T06:54:28;98077.34;;;1.71;77.21
51081;BME280;37130;55.670;37.596;2022-10-31T06:56:55;98086.53;;;1.82;77.51
51081;BME280;37130;55.670;37.596;2022-10-31T06:59:22;98089.00;;;1.86;77.18
51081;BME280;37130;55.670;37.596;2022-10-31T07:02:17;98096.72;;;1.89;77.53
51081;BME280;37130;55.670;37.596;2022-10-31T07:04:44;98105.91;;;2.00;77.21
51081;BME280;37130;55.670;37.596;2022-10-31T07:07:16;98103.72;;;2.11;77.17
51081;BME280;37130;55.670;37.596;2022-10-31T07:09:44;98100.72;;;2.22;77.00
51081;BME280;37130;55.670;37.596;2022-10-31T07:12:15;98107.28;;;2.32;76.89
51081;BME280;37130;55.670;37.596;2022-10-31T07:14:50;98121.19;;;2.32;77.06
51081;BME280;37130;55.670;37.596;2022-10-31T07:17:17;98126.78;;;2.23;76.59
51081;BME280;37130;55.670;37.596;2022-10-31T07:19:45;98138.38;;;2.16;76.87
51081;BME280;37130;55.670;37.596;2022-10-31T07:22:17;98139.38;;;2.12;77.31
51081;BME280;37130;55.670;37.596;2022-10-31T07:24:44;98153.41;;;2.09;77.23
51081;BME280;37130;55.670;37.596;2022-10-31T07:27:44;98159.31;;;2.14;77.28
51081;BME280;37130;55.670;37.596;2022-10-31T07:30:12;98166.72;;;2.25;77.00
51081;BME280;37130;55.670;37.596;2022-10-31T07:32:43;98167.69;;;2.23;77.11
51081;BME280;37130;55.670;37.596;2022-10-31T07:35:17;98175.50;;;2.24;77.67
51081;BME280;37130;55.670;37.596;2022-10-31T07:37:53;98187.53;;;2.28;77.76
51081;BME280;37130;55.670;37.596;2022-10-31T07:40:22;98191.59;;;2.35;77.50
51081;BME280;37130;55.670;37.596;2022-10-31T07:42:50;98198.38;;;2.41;77.40
51081;BME280;37130;55.670;37.596;2022-10-31T07:45:36;98207.53;;;2.53;77.47
51081;BME280;37130;55.670;37.596;2022-10-31T07:48:22;98217.81;;;2.57;77.52
51081;BME280;37130;55.670;37.596;2022-10-31T07:51:07;98230.03;;;2.57;77.34
51081;BME280;37130;55.670;37.596;2022-10-31T07:53:54;98245.91;;;2.51;77.54
51081;BME280;37130;55.670;37.596;2022-10-31T07:56:24;98259.63;;;2.57;78.14
51081;BME280;37130;55.670;37.596;2022-10-31T07:58:52;98250.81;;;2.60;78.18
51081;BME280;37130;55.670;37.596;2022-10-31T08:01:19;98246.28;;;2.65;78.65
51081;BME280;37130;55.670;37.596;2022-10-31T08:04:02;98259.66;;;2.56;78.44
51081;BME280;37130;55.670;37.596;2022-10-31T08:06:49;98254.00;;;2.45;78.83
51081;BME280;37130;55.670;37.596;2022-10-31T08:09:26;98260.19;;;2.42;78.70
51081;BME280;37130;55.670;37.596;2022-10-31T08:11:56;98267.16;;;2.41;79.09
51081;BME280;37130;55.670;37.596;2022-10-31T08:14:24;98271.44;;;2.44;79.02
51081;BME280;37130;55.670;37.596;2022-10-31T08:16:52;98276.44;;;2.50;79.10
51081;BME280;37130;55.670;37.596;2022-10-31T08:19:19;98284.31;;;2.49;79.42
51081;BME280;37130;55.670;37.596;2022-10-31T08:21:46;98293.19;;;2.45;79.19
51081;BME280;37130;55.670;37.596;2022-10-31T08:24:14;98293.09;;;2.46;79.42
51081;BME280;37130;55.670;37.596;2022-10-31T08:26:41;98297.06;;;2.58;79.62
51081;BME280;37130;55.670;37.596;2022-10-31T08:29:10;98298.44;;;2.68;79.76
51081;BME280;37130;55.670;37.596;2022-10-31T08:31:38;98307.16;;;2.67;79.49
51081;BME280;37130;55.670;37.596;2022-10-31T08:34:44;98312.19;;;2.73;79.56
51081;BME280;37130;55.670;37.596;2022-10-31T08:37:29;98313.56;;;2.83;79.49
51081;BME280;37130;55.670;37.596;2022-10-31T08:39:56;98298.19;;;2.98;80.10
51081;BME280;37130;55.670;37.596;2022-10-31T08:42:24;98315.88;;;3.15;80.13
51081;BME280;37130;55.670;37.596;2022-10-31T08:44:51;98326.22;;;3.40;79.84
51081;BME280;37130;55.670;37.596;2022-10-31T08:47:20;98338.84;;;3.52;79.78
51081;BME280;37130;55.670;37.596;2022-10-31T08:49:47;98344.00;;;3.54;79.60
51081;BME280;37130;55.670;37.596;2022-10-31T08:52:15;98346.19;;;3.42;79.74
51081;BME280;37130;55.670;37.596;2022-10-31T08:54:45;98357.69;;;3.38;79.90
51081;BME280;37130;55.670;37.596;2022-10-31T08:57:31;98346.94;;;3.46;79.97
51081;BME280;37130;55.670;37.596;2022-10-31T08:59:58;98359.91;;;3.49;79.95
51081;BME280;37130;55.670;37.596;2022-10-31T09:02:25;98357.31;;;3.47;79.66
51081;BME280;37130;55.670;37.596;2022-10-31T09:04:57;98368.75;;;3.45;79.49
51081;BME280;37130;55.670;37.596;2022-10-31T09:07:25;98368.47;;;3.53;78.65
51081;BME280;37130;55.670;37.596;2022-10-31T09:09:53;98367.53;;;3.54;78.91
51081;BME280;37130;55.670;37.596;2022-10-31T09:12:20;98360.88;;;3.46;78.41
51081;BME280;37130;55.670;37.596;2022-10-31T09:15:05;98370.66;;;3.41;78.91
51081;BME280;37130;55.670;37.596;2022-10-31T09:18:07;98380.75;;;3.50;79.22
51081;BME280;37130;55.670;37.596;2022-10-31T09:20:44;98373.09;;;3.46;78.57
51081;BME280;37130;55.670;37.596;2022-10-31T09:23:12;98372.91;;;3.50;78.58
51081;BME280;37130;55.670;37.596;2022-10-31T09:25:40;98382.66;;;3.69;78.20
51081;BME280;37130;55.670;37.596;2022-10-31T09:28:29;98385.59;;;3.83;77.58
51081;BME280;37130;55.670;37.596;2022-10-31T09:31:00;98389.91;;;4.06;77.72
51081;BME280;37130;55.670;37.596;2022-10-31T09:33:45;98395.28;;;4.24;77.23
51081;BME280;37130;55.670;37.596;2022-10-31T09:36:48;98398.91;;;4.21;77.54
51081;BME280;37130;55.670;37.596;2022-10-31T09:39:20;98408.34;;;4.25;76.96
51081;BME280;37130;55.670;37.596;2022-10-31T09:50:15;98433.41;;;4.53;76.62
51081;BME280;37130;55.670;37.596;2022-10-31T09:52:52;98436.53;;;4.61;77.04
51081;BME280;37130;55.670;37.596;2022-10-31T09:55:24;98446.13;;;4.62;77.30
51081;BME280;37130;55.670;37.596;2022-10-31T09:57:53;98446.06;;;4.43;77.15
51081;BME280;37130;55.670;37.596;2022-10-31T10:00:20;98437.66;;;4.35;77.25
51081;BME280;37130;55.670;37.596;2022-10-31T10:05:39;98459.44;;;4.78;77.52
51081;BME280;37130;55.670;37.596;2022-10-31T10:08:19;98458.38;;;4.82;77.01
51081;BME280;37130;55.670;37.596;2022-10-31T10:16:27;98493.03;;;4.48;76.75
51081;BME280;37130;55.670;37.596;2022-10-31T10:21:48;98494.66;;;4.30;77.31
51081;BME280;37130;55.670;37.596;2022-10-31T10:24:21;98497.97;;;4.55;77.66
51081;BME280;37130;55.670;37.596;2022-10-31T10:31:47;98507.47;;;5.00;76.81
51081;BME280;37130;55.670;37.596;2022-10-31T10:34:20;98512.28;;;4.69;76.41
51081;BME280;37130;55.670;37.596;2022-10-31T10:36:51;98520.59;;;4.58;77.05
51081;BME280;37130;55.670;37.596;2022-10-31T10:39:22;98517.59;;;4.67;76.73
51081;BME280;37130;55.670;37.596;2022-10-31T10:41:50;98523.38;;;4.75;76.97
51081;BME280;37130;55.670;37.596;2022-10-31T10:44:40;98515.50;;;4.75;77.09
51081;BME280;37130;55.670;37.596;2022-10-31T10:47:31;98537.78;;;4.65;76.83
51081;BME280;37130;55.670;37.596;2022-10-31T10:50:14;98540.88;;;4.53;76.79
51081;BME280;37130;55.670;37.596;2022-10-31T10:52:46;98445.53;;;3.91;77.09
51081;BME280;37130;55.670;37.596;2022-10-31T10:58:05;98546.69;;;4.39;76.70
51081;BME280;37130;55.670;37.596;2022-10-31T11:00:51;98542.91;;;4.24;77.17
51081;BME280;37130;55.670;37.596;2022-10-31T11:03:21;98536.47;;;4.33;77.05
51081;BME280;37130;55.670;37.596;2022-10-31T11:11:02;98539.06;;;4.55;77.17
51081;BME280;37130;55.670;37.596;2022-10-31T11:13:30;98531.75;;;4.41;76.50
51081;BME280;37130;55.670;37.596;2022-10-31T11:16:00;98512.63;;;4.17;76.86
51081;BME280;37130;55.670;37.596;2022-10-31T11:18:29;98520.78;;;4.09;77.14
51081;BME280;37130;55.670;37.596;2022-10-31T11:20:58;98536.00;;;4.00;77.46
51081;BME280;37130;55.670;37.596;2022-10-31T11:23:27;98529.91;;;3.99;77.21
51081;BME280;37130;55.670;37.596;2022-10-31T11:28:21;98558.09;;;3.92;77.26
51081;BME280;37130;55.670;37.596;2022-10-31T11:33:17;98553.03;;;3.88;77.13
51081;BME280;37130;55.670;37.596;2022-10-31T11:35:46;98552.34;;;3.83;77.10
51081;BME280;37130;55.670;37.596;2022-10-31T11:38:18;98557.63;;;3.81;77.12
51081;BME280;37130;55.670;37.596;2022-10-31T11:41:23;98554.44;;;3.73;76.70
51081;BME280;37130;55.670;37.596;2022-10-31T11:43:39;98564.34;;;3.65;76.56
51081;BME280;37130;55.670;37.596;2022-10-31T11:46:13;98564.56;;;3.59;76.85
51081;BME280;37130;55.670;37.596;2022-10-31T11:48:46;98565.44;;;3.59;76.79
51081;BME280;37130;55.670;37.596;2022-10-31T11:51:19;98569.00;;;3.57;77.10
51081;BME280;37130;55.670;37.596;2022-10-31T11:53:53;98562.13;;;3.54;77.25
51081;BME280;37130;55.670;37.596;2022-10-31T11:56:41;98559.50;;;3.54;76.98
51081;BME280;37130;55.670;37.596;2022-10-31T11:59:17;98572.91;;;3.45;76.66
51081;BME280;37130;55.670;37.596;2022-10-31T12:01:50;98581.88;;;3.38;76.47
51081;BME280;37130;55.670;37.596;2022-10-31T12:04:17;98581.03;;;3.37;76.46
51081;BME280;37130;55.670;37.596;2022-10-31T12:06:45;98578.53;;;3.34;76.27
51081;BME280;37130;55.670;37.596;2022-10-31T12:14:16;98531.47;;;3.07;76.39
51081;BME280;37130;55.670;37.596;2022-10-31T12:29:45;98589.50;;;3.19;76.64
51081;BME280;37130;55.670;37.596;2022-10-31T12:32:20;98592.91;;;3.22;76.61
51081;BME280;37130;55.670;37.596;2022-10-31T12:45:18;98585.75;;;3.01;76.18
51081;BME280;37130;55.670;37.596;2022-10-31T12:48:05;98584.69;;;3.06;76.83
51081;BME280;37130;55.670;37.596;2022-10-31T12:55:37;98602.81;;;3.13;77.12
51081;BME280;37130;55.670;37.596;2022-10-31T12:58:24;98606.53;;;3.05;77.13
51081;BME280;37130;55.670;37.596;2022-10-31T13:01:01;98617.00;;;3.05;77.39
51081;BME280;37130;55.670;37.596;2022-10-31T13:03:33;98617.00;;;3.05;77.12
51081;BME280;37130;55.670;37.596;2022-10-31T13:06:03;98613.53;;;3.05;77.29
51081;BME280;37130;55.670;37.596;2022-10-31T13:08:37;98617.94;;;3.03;76.97
51081;BME280;37130;55.670;37.596;2022-10-31T13:11:11;98618.78;;;3.03;77.36
51081;BME280;37130;55.670;37.596;2022-10-31T13:13:47;98624.03;;;3.03;77.07
51081;BME280;37130;55.670;37.596;2022-10-31T13:16:18;98629.31;;;3.02;77.11
51081;BME280;37130;55.670;37.596;2022-10-31T13:21:26;98637.28;;;2.99;77.15
51081;BME280;37130;55.670;37.596;2022-10-31T13:23:53;98643.47;;;2.96;76.94
51081;BME280;37130;55.670;37.596;2022-10-31T13:28:52;98642.69;;;2.93;76.98
51081;BME280;37130;55.670;37.596;2022-10-31T13:31:21;98632.19;;;2.94;76.84
51081;BME280;37130;55.670;37.596;2022-10-31T13:33:53;98646.06;;;2.96;76.77
51081;BME280;37130;55.670;37.596;2022-10-31T13:39:47;98660.84;;;2.97;76.44
51081;BME280;37130;55.670;37.596;2022-10-31T13:41:56;98659.09;;;2.98;76.68
51081;BME280;37130;55.670;37.596;2022-10-31T13:44:27;98675.69;;;2.97;76.50
51081;BME280;37130;55.670;37.596;2022-10-31T13:47:00;98672.97;;;3.00;76.09
51081;BME280;37130;55.670;37.596;2022-10-31T13:54:37;98587.50;;;2.47;76.22
51081;BME280;37130;55.670;37.596;2022-10-31T13:57:47;98680.69;;;3.04;76.37
51081;BME280;37130;55.670;37.596;2022-10-31T14:00:01;98700.75;;;3.04;76.26
51081;BME280;37130;55.670;37.596;2022-10-31T14:02:43;98692.94;;;3.02;76.13
51081;BME280;37130;55.670;37.596;2022-10-31T14:07:54;98689.38;;;3.05;75.58
51081;BME280;37130;55.670;37.596;2022-10-31T14:10:31;98684.16;;;3.05;76.11
51081;BME280;37130;55.670;37.596;2022-10-31T14:13:07;98692.97;;;3.01;75.88
51081;BME280;37130;55.670;37.596;2022-10-31T14:15:36;98689.47;;;3.02;75.84
51081;BME280;37130;55.670;37.596;2022-10-31T14:18:05;98692.09;;;3.02;76.03
51081;BME280;37130;55.670;37.596;2022-10-31T14:25:45;98706.13;;;2.99;76.18
51081;BME280;37130;55.670;37.596;2022-10-31T14:30:56;98714.06;;;2.96;75.84
51081;BME280;37130;55.670;37.596;2022-10-31T14:33:25;98713.16;;;2.97;75.95
51081;BME280;37130;55.670;37.596;2022-10-31T14:36:04;98728.84;;;2.97;76.02
51081;BME280;37130;55.670;37.596;2022-10-31T14:38:46;98714.13;;;2.93;75.92
51081;BME280;37130;55.670;37.596;2022-10-31T14:44:15;98714.97;;;2.95;75.40
51081;BME280;37130;55.670;37.596;2022-10-31T14:52:08;98731.44;;;2.99;75.46
51081;BME280;37130;55.670;37.596;2022-10-31T14:54:40;98750.59;;;2.99;76.04
51081;BME280;37130;55.670;37.596;2022-10-31T14:57:42;98745.28;;;3.01;75.66
51081;BME280;37130;55.670;37.596;2022-10-31T15:00:04;98755.00;;;2.97;75.55
51081;BME280;37130;55.670;37.596;2022-10-31T15:02:44;98756.78;;;2.97;75.80
51081;BME280;37130;55.670;37.596;2022-10-31T15:05:15;98756.81;;;2.95;75.66
51081;BME280;37130;55.670;37.596;2022-10-31T15:08:26;98754.19;;;2.95;75.84
51081;BME280;37130;55.670;37.596;2022-10-31T15:10:36;98762.84;;;2.97;75.77
51081;BME280;37130;55.670;37.596;2022-10-31T15:13:10;98760.19;;;2.99;75.66
51081;BME280;37130;55.670;37.596;2022-10-31T15:15:38;98773.28;;;2.99;75.59
51081;BME280;37130;55.670;37.596;2022-10-31T15:18:06;98777.59;;;3.00;75.09
51081;BME280;37130;55.670;37.596;2022-10-31T15:20:36;98778.50;;;2.99;75.29
51081;BME280;37130;55.670;37.596;2022-10-31T15:23:05;98775.91;;;2.99;75.10
51081;BME280;37130;55.670;37.596;2022-10-31T15:25:33;98781.16;;;2.97;75.37
51081;BME280;37130;55.670;37.596;2022-10-31T15:28:01;98788.16;;;2.97;75.50
51081;BME280;37130;55.670;37.596;2022-10-31T15:30:39;98796.84;;;2.97;74.92
51081;BME280;37130;55.670;37.596;2022-10-31T15:33:28;98795.09;;;2.98;75.16
51081;BME280;37130;55.670;37.596;2022-10-31T15:36:03;98798.56;;;2.98;75.46
51081;BME280;37130;55.670;37.596;2022-10-31T15:38:30;98802.94;;;2.98;75.22
51081;BME280;37130;55.670;37.596;2022-10-31T15:41:03;98801.16;;;2.98;75.24
51081;BME280;37130;55.670;37.596;2022-10-31T15:43:33;98806.41;;;2.98;75.04